sensor_id;sensor_type;location;lat;lon;timestamp;temperature;humidity
25138;DHT22;13112;50.986;4.354;2023-02-21T00:02:10;9.30;99.90
25138;DHT22;13112;50.986;4.354;2023-02-21T00:04:54;9.10;99.90
25138;DHT22;13112;50.986;4.354;2023-02-21T00:07:38;9.10;99.90
25138;DHT22;13112;50.986;4.354;2023-02-21T00:10:22;9.20;99.90
25138;DHT22;13112;50.986;4.354;2023-02-21T00:13:07;8.80;99.90
25138;DHT22;13112;50.986;4.354;2023-02-21T00:15:51;8.90;99.90
25138;DHT22;13112;50.986;4.354;2023-02-21T00:18:36;9.00;99.90
25138;DHT22;13112;50.986;4.354;2023-02-21T00:21:21;9.10;99.90
25138;DHT22;13112;50.986;4.354;2023-02-21T00:24:05;9.10;99.90
25138;DHT22;13112;50.986;4.354;2023-02-21T00:26:50;9.00;99.90
25138;DHT22;13112;50.986;4.354;2023-02-21T00:29:34;8.90;99.90
25138;DHT22;13112;50.986;4.354;2023-02-21T00:32:18;8.90;99.90
25138;DHT22;13112;50.986;4.354;2023-02-21T00:35:02;8.90;99.90
25138;DHT22;13112;50.986;4.354;2023-02-21T00:37:51;8.80;99.90
25138;DHT22;13112;50.986;4.354;2023-02-21T00:40:35;8.80;99.90
25138;DHT22;13112;50.986;4.354;2023-02-21T00:43:26;8.90;99.90
25138;DHT22;13112;50.986;4.354;2023-02-21T00:46:10;8.90;99.90
25138;DHT22;13112;50.986;4.354;2023-02-21T00:48:54;8.80;99.90
25138;DHT22;13112;50.986;4.354;2023-02-21T00:51:38;8.90;99.90
25138;DHT22;13112;50.986;4.354;2023-02-21T00:54:22;9.10;99.90
25138;DHT22;13112;50.986;4.354;2023-02-21T00:57:07;9.20;99.90
25138;DHT22;13112;50.986;4.354;2023-02-21T00:59:51;9.00;99.90
25138;DHT22;13112;50.986;4.354;2023-02-21T01:02:35;8.80;99.90
25138;DHT22;13112;50.986;4.354;2023-02-21T01:05:19;8.70;99.90
25138;DHT22;13112;50.986;4.354;2023-02-21T01:08:03;8.70;99.90
25138;DHT22;13112;50.986;4.354;2023-02-21T01:10:48;8.80;99.90
25138;DHT22;13112;50.986;4.354;2023-02-21T01:13:32;8.80;99.90
25138;DHT22;13112;50.986;4.354;2023-02-21T01:16:16;8.80;99.90
25138;DHT22;13112;50.986;4.354;2023-02-21T01:19:00;8.80;99.90
25138;DHT22;13112;50.986;4.354;2023-02-21T01:21:44;8.80;99.90
25138;DHT22;13112;50.986;4.354;2023-02-21T01:24:28;8.70;99.90
25138;DHT22;13112;50.986;4.354;2023-02-21T01:27:12;8.70;99.90
25138;DHT22;13112;50.986;4.354;2023-02-21T01:29:56;8.70;99.90
25138;DHT22;13112;50.986;4.354;2023-02-21T01:32:40;8.60;99.90
25138;DHT22;13112;50.986;4.354;2023-02-21T01:35:25;8.60;99.90
25138;DHT22;13112;50.986;4.354;2023-02-21T01:38:09;8.70;99.90
25138;DHT22;13112;50.986;4.354;2023-02-21T01:40:53;8.60;99.90
25138;DHT22;13112;50.986;4.354;2023-02-21T01:43:37;8.60;99.90
25138;DHT22;13112;50.986;4.354;2023-02-21T01:46:21;8.50;99.90
25138;DHT22;13112;50.986;4.354;2023-02-21T01:49:13;8.50;99.90
25138;DHT22;13112;50.986;4.354;2023-02-21T01:51:59;8.40;99.90
25138;DHT22;13112;50.986;4.354;2023-02-21T01:54:48;8.60;99.90
25138;DHT22;13112;50.986;4.354;2023-02-21T01:57:34;8.60;99.90
25138;DHT22;13112;50.986;4.354;2023-02-21T02:00:19;8.50;99.90
25138;DHT22;13112;50.986;4.354;2023-02-21T02:03:06;8.60;99.90
25138;DHT22;13112;50.986;4.354;2023-02-21T02:05:55;8.80;99.90
25138;DHT22;13112;50.986;4.354;2023-02-21T02:08:39;8.80;99.90
25138;DHT22;13112;50.986;4.354;2023-02-21T02:22:55;8.60;99.90
25138;DHT22;13112;50.986;4.354;2023-02-21T02:27:58;8.60;99.90
25138;DHT22;13112;50.986;4.354;2023-02-21T02:36:09;9.00;99.90
25138;DHT22;13112;50.986;4.354;2023-02-21T02:46:46;8.50;99.90
25138;DHT22;13112;50.986;4.354;2023-02-21T02:49:24;8.60;99.90
25138;DHT22;13112;50.986;4.354;2023-02-21T02:51:51;8.50;99.90
25138;DHT22;13112;50.986;4.354;2023-02-21T02:54:17;8.60;99.90
25138;DHT22;13112;50.986;4.354;2023-02-21T02:56:44;8.70;99.90
25138;DHT22;13112;50.986;4.354;2023-02-21T02:59:16;8.80;99.90
25138;DHT22;13112;50.986;4.354;2023-02-21T03:12:54;8.40;99.90
25138;DHT22;13112;50.986;4.354;2023-02-21T03:15:31;8.30;99.90
25138;DHT22;13112;50.986;4.354;2023-02-21T03:18:28;8.30;99.90
25138;DHT22;13112;50.986;4.354;2023-02-21T03:21:00;8.30;99.90
25138;DHT22;13112;50.986;4.354;2023-02-21T03:23:29;8.30;99.90
25138;DHT22;13112;50.986;4.354;2023-02-21T03:25:58;8.10;99.90
25138;DHT22;13112;50.986;4.354;2023-02-21T03:28:25;8.20;99.90
25138;DHT22;13112;50.986;4.354;2023-02-21T03:30:53;8.30;99.90
25138;DHT22;13112;50.986;4.354;2023-02-21T03:33:20;8.40;99.90
25138;DHT22;13112;50.986;4.354;2023-02-21T03:35:47;8.30;99.90
25138;DHT22;13112;50.986;4.354;2023-02-21T03:38:13;8.20;99.90
25138;DHT22;13112;50.986;4.354;2023-02-21T03:40:39;8.10;99.90
25138;DHT22;13112;50.986;4.354;2023-02-21T03:43:05;8.10;99.90
25138;DHT22;13112;50.986;4.354;2023-02-21T03:45:32;8.10;99.90
25138;DHT22;13112;50.986;4.354;2023-02-21T03:47:58;8.10;99.90
25138;DHT22;13112;50.986;4.354;2023-02-21T03:50:23;8.10;99.90
25138;DHT22;13112;50.986;4.354;2023-02-21T03:52:49;8.10;99.90
25138;DHT22;13112;50.986;4.354;2023-02-21T03:55:15;8.20;99.90
25138;DHT22;13112;50.986;4.354;2023-02-21T03:57:41;8.20;99.90
25138;DHT22;13112;50.986;4.354;2023-02-21T04:00:07;8.20;99.90
25138;DHT22;13112;50.986;4.354;2023-02-21T04:02:33;8.20;99.90
25138;DHT22;13112;50.986;4.354;2023-02-21T04:04:58;8.20;99.90
25138;DHT22;13112;50.986;4.354;2023-02-21T04:07:24;8.20;99.90
25138;DHT22;13112;50.986;4.354;2023-02-21T04:09:50;8.20;99.90
25138;DHT22;13112;50.986;4.354;2023-02-21T04:12:16;8.10;99.90
25138;DHT22;13112;50.986;4.354;2023-02-21T04:14:42;8.20;99.90
25138;DHT22;13112;50.986;4.354;2023-02-21T04:17:07;8.00;99.90
25138;DHT22;13112;50.986;4.354;2023-02-21T04:19:33;7.90;99.90
25138;DHT22;13112;50.986;4.354;2023-02-21T04:21:59;8.00;99.90
25138;DHT22;13112;50.986;4.354;2023-02-21T04:24:24;8.00;99.90
25138;DHT22;13112;50.986;4.354;2023-02-21T04:26:50;7.80;99.90
25138;DHT22;13112;50.986;4.354;2023-02-21T04:29:16;8.00;99.90
25138;DHT22;13112;50.986;4.354;2023-02-21T04:31:42;8.00;99.90
25138;DHT22;13112;50.986;4.354;2023-02-21T04:34:07;8.00;99.90
25138;DHT22;13112;50.986;4.354;2023-02-21T04:36:33;8.10;99.90
25138;DHT22;13112;50.986;4.354;2023-02-21T04:38:59;8.10;99.90
25138;DHT22;13112;50.986;4.354;2023-02-21T04:41:24;8.10;99.90
25138;DHT22;13112;50.986;4.354;2023-02-21T04:43:50;8.00;99.90
25138;DHT22;13112;50.986;4.354;2023-02-21T04:46:18;8.10;99.90
25138;DHT22;13112;50.986;4.354;2023-02-21T04:48:48;8.10;99.90
25138;DHT22;13112;50.986;4.354;2023-02-21T04:51:15;8.30;99.90
25138;DHT22;13112;50.986;4.354;2023-02-21T04:53:42;8.20;99.90
25138;DHT22;13112;50.986;4.354;2023-02-21T04:56:08;8.10;99.90
25138;DHT22;13112;50.986;4.354;2023-02-21T04:58:35;8.10;99.90
25138;DHT22;13112;50.986;4.354;2023-02-21T05:01:01;8.10;99.90
25138;DHT22;13112;50.986;4.354;2023-02-21T05:03:26;8.10;99.90
25138;DHT22;13112;50.986;4.354;2023-02-21T05:05:52;8.00;99.90
25138;DHT22;13112;50.986;4.354;2023-02-21T05:08:18;8.10;99.90
25138;DHT22;13112;50.986;4.354;2023-02-21T05:10:43;7.90;99.90
25138;DHT22;13112;50.986;4.354;2023-02-21T05:13:11;7.80;99.90
25138;DHT22;13112;50.986;4.354;2023-02-21T05:15:36;7.80;99.90
25138;DHT22;13112;50.986;4.354;2023-02-21T05:18:02;7.80;99.90
25138;DHT22;13112;50.986;4.354;2023-02-21T05:20:28;7.60;99.90
25138;DHT22;13112;50.986;4.354;2023-02-21T05:22:53;7.70;99.90
25138;DHT22;13112;50.986;4.354;2023-02-21T05:25:21;7.60;99.90
25138;DHT22;13112;50.986;4.354;2023-02-21T05:27:48;7.70;99.90
25138;DHT22;13112;50.986;4.354;2023-02-21T05:30:15;7.50;99.90
25138;DHT22;13112;50.986;4.354;2023-02-21T05:32:42;7.50;99.90
25138;DHT22;13112;50.986;4.354;2023-02-21T05:35:08;7.40;99.90
25138;DHT22;13112;50.986;4.354;2023-02-21T05:37:34;7.40;99.90
25138;DHT22;13112;50.986;4.354;2023-02-21T05:40:00;7.50;99.90
25138;DHT22;13112;50.986;4.354;2023-02-21T05:42:26;7.60;99.90
25138;DHT22;13112;50.986;4.354;2023-02-21T05:44:51;7.80;99.90
25138;DHT22;13112;50.986;4.354;2023-02-21T05:47:17;7.80;99.90
25138;DHT22;13112;50.986;4.354;2023-02-21T05:49:43;7.80;99.90
25138;DHT22;13112;50.986;4.354;2023-02-21T05:52:14;7.80;99.90
25138;DHT22;13112;50.986;4.354;2023-02-21T05:54:40;7.70;99.90
25138;DHT22;13112;50.986;4.354;2023-02-21T05:57:06;7.70;99.90
25138;DHT22;13112;50.986;4.354;2023-02-21T05:59:31;7.80;99.90
25138;DHT22;13112;50.986;4.354;2023-02-21T06:01:57;7.90;99.90
25138;DHT22;13112;50.986;4.354;2023-02-21T06:04:23;7.70;99.90
25138;DHT22;13112;50.986;4.354;2023-02-21T06:06:49;7.80;99.90
25138;DHT22;13112;50.986;4.354;2023-02-21T06:09:17;7.60;99.90
25138;DHT22;13112;50.986;4.354;2023-02-21T06:11:44;7.50;99.90
25138;DHT22;13112;50.986;4.354;2023-02-21T06:14:18;7.50;99.90
25138;DHT22;13112;50.986;4.354;2023-02-21T06:16:44;7.30;99.90
25138;DHT22;13112;50.986;4.354;2023-02-21T06:19:11;7.20;99.90
25138;DHT22;13112;50.986;4.354;2023-02-21T06:21:37;7.20;99.90
25138;DHT22;13112;50.986;4.354;2023-02-21T06:24:04;7.30;99.90
25138;DHT22;13112;50.986;4.354;2023-02-21T06:26:30;7.40;99.90
25138;DHT22;13112;50.986;4.354;2023-02-21T06:28:56;7.50;99.90
25138;DHT22;13112;50.986;4.354;2023-02-21T06:31:22;7.50;99.90
25138;DHT22;13112;50.986;4.354;2023-02-21T06:33:49;7.50;99.90
25138;DHT22;13112;50.986;4.354;2023-02-21T06:36:24;7.50;99.90
25138;DHT22;13112;50.986;4.354;2023-02-21T06:38:52;7.50;99.90
25138;DHT22;13112;50.986;4.354;2023-02-21T06:41:19;7.60;99.90
25138;DHT22;13112;50.986;4.354;2023-02-21T06:43:45;7.70;99.90
25138;DHT22;13112;50.986;4.354;2023-02-21T06:46:16;7.80;99.90
25138;DHT22;13112;50.986;4.354;2023-02-21T06:48:41;7.70;99.90
25138;DHT22;13112;50.986;4.354;2023-02-21T06:51:07;7.60;99.90
25138;DHT22;13112;50.986;4.354;2023-02-21T06:53:39;7.60;99.90
25138;DHT22;13112;50.986;4.354;2023-02-21T06:56:05;7.70;99.90
25138;DHT22;13112;50.986;4.354;2023-02-21T06:58:31;7.70;99.90
25138;DHT22;13112;50.986;4.354;2023-02-21T07:00:56;7.60;99.90
25138;DHT22;13112;50.986;4.354;2023-02-21T07:03:22;7.60;99.90
25138;DHT22;13112;50.986;4.354;2023-02-21T07:05:48;7.40;99.90
25138;DHT22;13112;50.986;4.354;2023-02-21T07:08:13;7.50;99.90
25138;DHT22;13112;50.986;4.354;2023-02-21T07:10:39;7.30;99.90
25138;DHT22;13112;50.986;4.354;2023-02-21T07:13:05;7.40;99.90
25138;DHT22;13112;50.986;4.354;2023-02-21T07:15:30;7.30;99.90
25138;DHT22;13112;50.986;4.354;2023-02-21T07:17:56;7.40;99.90
25138;DHT22;13112;50.986;4.354;2023-02-21T07:20:21;7.40;99.90
25138;DHT22;13112;50.986;4.354;2023-02-21T07:22:47;7.40;99.90
25138;DHT22;13112;50.986;4.354;2023-02-21T07:25:14;7.30;99.90
25138;DHT22;13112;50.986;4.354;2023-02-21T07:27:40;7.30;99.90
25138;DHT22;13112;50.986;4.354;2023-02-21T07:30:06;7.50;99.90
25138;DHT22;13112;50.986;4.354;2023-02-21T07:32:32;7.50;99.90
25138;DHT22;13112;50.986;4.354;2023-02-21T07:34:57;7.40;99.90
25138;DHT22;13112;50.986;4.354;2023-02-21T07:37:23;7.50;99.90
25138;DHT22;13112;50.986;4.354;2023-02-21T07:39:49;7.50;99.90
25138;DHT22;13112;50.986;4.354;2023-02-21T07:42:14;7.50;99.90
25138;DHT22;13112;50.986;4.354;2023-02-21T07:44:40;7.60;99.90
25138;DHT22;13112;50.986;4.354;2023-02-21T07:47:06;7.70;99.90
25138;DHT22;13112;50.986;4.354;2023-02-21T07:49:38;7.60;99.90
25138;DHT22;13112;50.986;4.354;2023-02-21T07:52:04;7.70;99.90
25138;DHT22;13112;50.986;4.354;2023-02-21T07:54:30;7.70;99.90
25138;DHT22;13112;50.986;4.354;2023-02-21T07:56:56;7.70;99.90
25138;DHT22;13112;50.986;4.354;2023-02-21T07:59:21;7.60;99.90
25138;DHT22;13112;50.986;4.354;2023-02-21T08:01:48;7.50;99.90
25138;DHT22;13112;50.986;4.354;2023-02-21T08:04:14;7.50;99.90
25138;DHT22;13112;50.986;4.354;2023-02-21T08:06:39;7.50;99.90
25138;DHT22;13112;50.986;4.354;2023-02-21T08:09:05;7.60;99.90
25138;DHT22;13112;50.986;4.354;2023-02-21T08:11:31;7.60;99.90
25138;DHT22;13112;50.986;4.354;2023-02-21T08:13:58;7.60;99.90
25138;DHT22;13112;50.986;4.354;2023-02-21T08:16:24;7.60;99.90
25138;DHT22;13112;50.986;4.354;2023-02-21T08:18:50;7.50;99.90
25138;DHT22;13112;50.986;4.354;2023-02-21T08:21:15;7.60;99.90
25138;DHT22;13112;50.986;4.354;2023-02-21T08:23:41;7.70;99.90
25138;DHT22;13112;50.986;4.354;2023-02-21T08:26:07;7.80;99.90
25138;DHT22;13112;50.986;4.354;2023-02-21T08:28:33;8.00;99.90
25138;DHT22;13112;50.986;4.354;2023-02-21T08:30:58;8.00;99.90
25138;DHT22;13112;50.986;4.354;2023-02-21T08:33:24;8.00;99.90
25138;DHT22;13112;50.986;4.354;2023-02-21T08:35:50;8.30;99.90
25138;DHT22;13112;50.986;4.354;2023-02-21T08:38:17;8.60;99.90
25138;DHT22;13112;50.986;4.354;2023-02-21T08:40:43;8.40;99.90
25138;DHT22;13112;50.986;4.354;2023-02-21T08:43:10;8.30;99.90
25138;DHT22;13112;50.986;4.354;2023-02-21T08:45:35;8.30;99.90
25138;DHT22;13112;50.986;4.354;2023-02-21T08:48:02;8.30;99.90
25138;DHT22;13112;50.986;4.354;2023-02-21T08:50:28;8.20;99.90
25138;DHT22;13112;50.986;4.354;2023-02-21T08:52:54;8.00;99.90
25138;DHT22;13112;50.986;4.354;2023-02-21T08:55:20;8.10;99.90
25138;DHT22;13112;50.986;4.354;2023-02-21T08:57:51;8.30;99.90
25138;DHT22;13112;50.986;4.354;2023-02-21T09:00:19;8.30;99.90
25138;DHT22;13112;50.986;4.354;2023-02-21T09:02:49;7.80;99.90
25138;DHT22;13112;50.986;4.354;2023-02-21T09:05:23;7.60;99.90
25138;DHT22;13112;50.986;4.354;2023-02-21T09:07:50;7.70;99.90
25138;DHT22;13112;50.986;4.354;2023-02-21T09:10:17;8.00;99.90
25138;DHT22;13112;50.986;4.354;2023-02-21T09:12:42;8.20;99.90
25138;DHT22;13112;50.986;4.354;2023-02-21T09:15:08;8.50;99.90
25138;DHT22;13112;50.986;4.354;2023-02-21T09:17:34;8.60;99.90
25138;DHT22;13112;50.986;4.354;2023-02-21T09:20:05;8.20;99.90
25138;DHT22;13112;50.986;4.354;2023-02-21T09:22:31;7.90;99.90
25138;DHT22;13112;50.986;4.354;2023-02-21T09:24:58;7.60;99.90
25138;DHT22;13112;50.986;4.354;2023-02-21T09:27:24;7.90;99.90
25138;DHT22;13112;50.986;4.354;2023-02-21T09:30:19;8.20;99.90
25138;DHT22;13112;50.986;4.354;2023-02-21T09:32:48;8.40;99.90
25138;DHT22;13112;50.986;4.354;2023-02-21T09:35:14;8.60;99.90
25138;DHT22;13112;50.986;4.354;2023-02-21T09:37:41;9.00;99.90
25138;DHT22;13112;50.986;4.354;2023-02-21T09:42:40;8.90;99.90
25138;DHT22;13112;50.986;4.354;2023-02-21T09:45:13;8.70;99.90
25138;DHT22;13112;50.986;4.354;2023-02-21T09:47:40;9.00;99.90
25138;DHT22;13112;50.986;4.354;2023-02-21T09:50:13;9.30;99.90
25138;DHT22;13112;50.986;4.354;2023-02-21T09:52:40;9.30;99.90
25138;DHT22;13112;50.986;4.354;2023-02-21T09:55:26;9.40;99.90
25138;DHT22;13112;50.986;4.354;2023-02-21T09:57:52;9.40;99.90
25138;DHT22;13112;50.986;4.354;2023-02-21T10:00:21;9.30;99.90
25138;DHT22;13112;50.986;4.354;2023-02-21T10:08:52;9.00;99.90
25138;DHT22;13112;50.986;4.354;2023-02-21T10:14:33;8.50;99.90
25138;DHT22;13112;50.986;4.354;2023-02-21T10:17:33;8.50;99.90
25138;DHT22;13112;50.986;4.354;2023-02-21T10:20:01;8.80;99.90
25138;DHT22;13112;50.986;4.354;2023-02-21T10:22:34;9.10;99.90
25138;DHT22;13112;50.986;4.354;2023-02-21T10:25:23;9.30;99.90
25138;DHT22;13112;50.986;4.354;2023-02-21T10:27:51;9.30;99.90
25138;DHT22;13112;50.986;4.354;2023-02-21T10:30:37;9.40;99.90
25138;DHT22;13112;50.986;4.354;2023-02-21T10:33:05;9.50;99.90
25138;DHT22;13112;50.986;4.354;2023-02-21T10:35:33;9.30;99.90
25138;DHT22;13112;50.986;4.354;2023-02-21T10:38:00;9.40;99.90
25138;DHT22;13112;50.986;4.354;2023-02-21T10:40:52;9.70;99.90
25138;DHT22;13112;50.986;4.354;2023-02-21T10:43:31;9.60;99.90
25138;DHT22;13112;50.986;4.354;2023-02-21T10:48:36;9.10;99.90
25138;DHT22;13112;50.986;4.354;2023-02-21T10:51:07;9.20;99.90
25138;DHT22;13112;50.986;4.354;2023-02-21T10:53:39;9.40;99.90
25138;DHT22;13112;50.986;4.354;2023-02-21T11:06:36;9.10;99.90
25138;DHT22;13112;50.986;4.354;2023-02-21T11:09:29;9.00;99.90
25138;DHT22;13112;50.986;4.354;2023-02-21T11:17:20;9.20;99.90
25138;DHT22;13112;50.986;4.354;2023-02-21T11:22:50;9.00;99.90
25138;DHT22;13112;50.986;4.354;2023-02-21T11:25:27;9.10;99.90
25138;DHT22;13112;50.986;4.354;2023-02-21T11:28:04;9.30;99.90
25138;DHT22;13112;50.986;4.354;2023-02-21T11:30:36;9.20;99.90
25138;DHT22;13112;50.986;4.354;2023-02-21T11:33:03;8.60;99.90
25138;DHT22;13112;50.986;4.354;2023-02-21T11:35:31;8.00;99.90
25138;DHT22;13112;50.986;4.354;2023-02-21T11:38:02;8.00;99.90
25138;DHT22;13112;50.986;4.354;2023-02-21T11:40:44;8.10;99.90
25138;DHT22;13112;50.986;4.354;2023-02-21T11:46:08;8.90;99.90
25138;DHT22;13112;50.986;4.354;2023-02-21T11:49:46;8.90;99.90
25138;DHT22;13112;50.986;4.354;2023-02-21T11:51:59;8.70;99.90
25138;DHT22;13112;50.986;4.354;2023-02-21T11:54:27;9.10;99.90
25138;DHT22;13112;50.986;4.354;2023-02-21T12:00:16;9.40;99.90
25138;DHT22;13112;50.986;4.354;2023-02-21T12:05:44;8.60;99.90
25138;DHT22;13112;50.986;4.354;2023-02-21T12:11:09;9.10;99.90
25138;DHT22;13112;50.986;4.354;2023-02-21T12:19:57;8.70;99.90
25138;DHT22;13112;50.986;4.354;2023-02-21T12:44:47;9.40;99.90
25138;DHT22;13112;50.986;4.354;2023-02-21T12:47:33;9.80;99.90
25138;DHT22;13112;50.986;4.354;2023-02-21T12:50:23;9.70;99.90
25138;DHT22;13112;50.986;4.354;2023-02-21T12:53:09;9.50;99.90
25138;DHT22;13112;50.986;4.354;2023-02-21T12:55:37;9.30;99.90
25138;DHT22;13112;50.986;4.354;2023-02-21T12:58:22;9.10;99.90
25138;DHT22;13112;50.986;4.354;2023-02-21T13:01:01;9.10;99.90
25138;DHT22;13112;50.986;4.354;2023-02-21T13:03:44;9.30;99.90
25138;DHT22;13112;50.986;4.354;2023-02-21T13:12:04;9.50;99.90
25138;DHT22;13112;50.986;4.354;2023-02-21T13:14:44;9.40;99.90
25138;DHT22;13112;50.986;4.354;2023-02-21T13:17:13;9.70;99.90
25138;DHT22;13112;50.986;4.354;2023-02-21T13:20:02;9.90;99.90
25138;DHT22;13112;50.986;4.354;2023-02-21T13:22:31;10.20;99.90
25138;DHT22;13112;50.986;4.354;2023-02-21T13:28:16;10.10;99.90
25138;DHT22;13112;50.986;4.354;2023-02-21T13:30:50;10.20;99.90
25138;DHT22;13112;50.986;4.354;2023-02-21T13:33:39;10.10;99.90
25138;DHT22;13112;50.986;4.354;2023-02-21T13:41:33;10.30;99.90
25138;DHT22;13112;50.986;4.354;2023-02-21T13:44:03;10.00;99.90
25138;DHT22;13112;50.986;4.354;2023-02-21T13:55:09;10.10;99.90
25138;DHT22;13112;50.986;4.354;2023-02-21T14:08:35;10.90;99.90
25138;DHT22;13112;50.986;4.354;2023-02-21T14:13:48;10.30;99.90
25138;DHT22;13112;50.986;4.354;2023-02-21T14:16:34;10.60;99.90
25138;DHT22;13112;50.986;4.354;2023-02-21T14:19:09;10.80;99.90
25138;DHT22;13112;50.986;4.354;2023-02-21T14:24:25;9.90;99.90
25138;DHT22;13112;50.986;4.354;2023-02-21T14:40:00;11.00;99.90
25138;DHT22;13112;50.986;4.354;2023-02-21T15:02:09;10.80;99.90
25138;DHT22;13112;50.986;4.354;2023-02-21T15:07:34;10.60;99.90
25138;DHT22;13112;50.986;4.354;2023-02-21T15:13:25;10.80;99.90
25138;DHT22;13112;50.986;4.354;2023-02-21T15:16:01;10.70;99.90
25138;DHT22;13112;50.986;4.354;2023-02-21T15:18:29;10.70;99.90
25138;DHT22;13112;50.986;4.354;2023-02-21T15:21:03;10.40;99.90
25138;DHT22;13112;50.986;4.354;2023-02-21T15:23:29;9.90;99.90
25138;DHT22;13112;50.986;4.354;2023-02-21T15:25:57;9.60;99.90
25138;DHT22;13112;50.986;4.354;2023-02-21T15:28:30;9.50;99.90
25138;DHT22;13112;50.986;4.354;2023-02-21T15:31:04;9.60;99.90
25138;DHT22;13112;50.986;4.354;2023-02-21T15:33:34;9.90;99.90
25138;DHT22;13112;50.986;4.354;2023-02-21T15:36:07;9.80;99.90
25138;DHT22;13112;50.986;4.354;2023-02-21T15:41:27;9.70;99.90
25138;DHT22;13112;50.986;4.354;2023-02-21T15:44:05;9.50;99.90
25138;DHT22;13112;50.986;4.354;2023-02-21T15:46:45;9.20;99.90
25138;DHT22;13112;50.986;4.354;2023-02-21T15:49:20;8.90;99.90
25138;DHT22;13112;50.986;4.354;2023-02-21T15:51:47;8.70;99.90
25138;DHT22;13112;50.986;4.354;2023-02-21T15:56:41;9.00;99.90
25138;DHT22;13112;50.986;4.354;2023-02-21T15:59:16;9.30;99.90
25138;DHT22;13112;50.986;4.354;2023-02-21T16:01:42;9.40;99.90
25138;DHT22;13112;50.986;4.354;2023-02-21T16:04:21;9.40;99.90
25138;DHT22;13112;50.986;4.354;2023-02-21T16:06:55;9.60;99.90
25138;DHT22;13112;50.986;4.354;2023-02-21T16:09:29;9.70;99.90
25138;DHT22;13112;50.986;4.354;2023-02-21T16:19:40;9.40;99.90
25138;DHT22;13112;50.986;4.354;2023-02-21T16:28:18;9.40;99.90
25138;DHT22;13112;50.986;4.354;2023-02-21T16:30:29;9.40;99.90
25138;DHT22;13112;50.986;4.354;2023-02-21T16:33:01;9.50;99.90
25138;DHT22;13112;50.986;4.354;2023-02-21T16:35:27;9.30;99.90
25138;DHT22;13112;50.986;4.354;2023-02-21T16:37:56;9.30;99.90
25138;DHT22;13112;50.986;4.354;2023-02-21T16:40:25;9.40;99.90
25138;DHT22;13112;50.986;4.354;2023-02-21T16:42:52;9.50;99.90
25138;DHT22;13112;50.986;4.354;2023-02-21T16:45:18;9.60;99.90
25138;DHT22;13112;50.986;4.354;2023-02-21T16:47:46;9.70;99.90
25138;DHT22;13112;50.986;4.354;2023-02-21T16:50:20;9.70;99.90
25138;DHT22;13112;50.986;4.354;2023-02-21T16:52:46;9.70;99.90
25138;DHT22;13112;50.986;4.354;2023-02-21T16:55:16;9.70;99.90
25138;DHT22;13112;50.986;4.354;2023-02-21T16:57:46;9.80;99.90
25138;DHT22;13112;50.986;4.354;2023-02-21T17:00:12;9.80;99.90
25138;DHT22;13112;50.986;4.354;2023-02-21T17:02:38;9.90;99.90
25138;DHT22;13112;50.986;4.354;2023-02-21T17:05:04;9.80;99.90
25138;DHT22;13112;50.986;4.354;2023-02-21T17:07:30;9.90;99.90
25138;DHT22;13112;50.986;4.354;2023-02-21T17:09:55;9.90;99.90
25138;DHT22;13112;50.986;4.354;2023-02-21T17:12:21;9.90;99.90
25138;DHT22;13112;50.986;4.354;2023-02-21T17:14:47;9.90;99.90
25138;DHT22;13112;50.986;4.354;2023-02-21T17:17:12;10.00;99.90
25138;DHT22;13112;50.986;4.354;2023-02-21T17:19:39;9.90;99.90
25138;DHT22;13112;50.986;4.354;2023-02-21T17:22:05;9.80;99.90
25138;DHT22;13112;50.986;4.354;2023-02-21T17:24:31;9.80;99.90
25138;DHT22;13112;50.986;4.354;2023-02-21T17:26:57;9.80;99.90
25138;DHT22;13112;50.986;4.354;2023-02-21T17:29:23;9.80;99.90
25138;DHT22;13112;50.986;4.354;2023-02-21T17:31:53;9.70;99.90
25138;DHT22;13112;50.986;4.354;2023-02-21T17:34:20;9.70;99.90
25138;DHT22;13112;50.986;4.354;2023-02-21T17:36:50;9.70;99.90
25138;DHT22;13112;50.986;4.354;2023-02-21T17:39:17;9.60;99.90
25138;DHT22;13112;50.986;4.354;2023-02-21T17:41:47;9.60;99.90
25138;DHT22;13112;50.986;4.354;2023-02-21T17:44:14;9.70;99.90
25138;DHT22;13112;50.986;4.354;2023-02-21T17:46:48;9.70;99.90
25138;DHT22;13112;50.986;4.354;2023-02-21T17:49:20;9.60;99.90
25138;DHT22;13112;50.986;4.354;2023-02-21T17:51:46;9.60;99.90
25138;DHT22;13112;50.986;4.354;2023-02-21T17:54:14;9.30;99.90
25138;DHT22;13112;50.986;4.354;2023-02-21T17:56:40;9.20;99.90
25138;DHT22;13112;50.986;4.354;2023-02-21T17:59:05;9.10;99.90
25138;DHT22;13112;50.986;4.354;2023-02-21T18:01:31;9.00;99.90
25138;DHT22;13112;50.986;4.354;2023-02-21T18:03:57;9.10;99.90
25138;DHT22;13112;50.986;4.354;2023-02-21T18:06:26;9.00;99.90
25138;DHT22;13112;50.986;4.354;2023-02-21T18:08:52;9.10;99.90
25138;DHT22;13112;50.986;4.354;2023-02-21T18:11:20;9.10;99.90
25138;DHT22;13112;50.986;4.354;2023-02-21T18:13:46;8.90;99.90
25138;DHT22;13112;50.986;4.354;2023-02-21T18:16:12;8.70;99.90
25138;DHT22;13112;50.986;4.354;2023-02-21T18:18:38;8.60;99.90
25138;DHT22;13112;50.986;4.354;2023-02-21T18:21:05;8.60;99.90
25138;DHT22;13112;50.986;4.354;2023-02-21T18:23:31;8.60;99.90
25138;DHT22;13112;50.986;4.354;2023-02-21T18:25:58;8.50;99.90
25138;DHT22;13112;50.986;4.354;2023-02-21T18:28:25;8.40;99.90
25138;DHT22;13112;50.986;4.354;2023-02-21T18:30:51;8.30;99.90
25138;DHT22;13112;50.986;4.354;2023-02-21T18:33:18;8.30;99.90
25138;DHT22;13112;50.986;4.354;2023-02-21T18:35:44;8.20;99.90
25138;DHT22;13112;50.986;4.354;2023-02-21T18:38:10;8.10;99.90
25138;DHT22;13112;50.986;4.354;2023-02-21T18:40:37;8.00;99.90
25138;DHT22;13112;50.986;4.354;2023-02-21T18:43:24;7.90;99.90
25138;DHT22;13112;50.986;4.354;2023-02-21T18:45:52;7.80;99.90
25138;DHT22;13112;50.986;4.354;2023-02-21T18:48:19;7.60;99.90
25138;DHT22;13112;50.986;4.354;2023-02-21T18:50:46;7.30;99.90
25138;DHT22;13112;50.986;4.354;2023-02-21T18:53:13;7.30;99.90
25138;DHT22;13112;50.986;4.354;2023-02-21T18:55:39;7.20;99.90
25138;DHT22;13112;50.986;4.354;2023-02-21T18:58:06;7.10;99.90
25138;DHT22;13112;50.986;4.354;2023-02-21T19:00:37;7.00;99.90
25138;DHT22;13112;50.986;4.354;2023-02-21T19:03:06;6.80;99.90
25138;DHT22;13112;50.986;4.354;2023-02-21T19:05:33;6.60;99.90
25138;DHT22;13112;50.986;4.354;2023-02-21T19:07:59;6.30;99.90
25138;DHT22;13112;50.986;4.354;2023-02-21T19:10:26;6.20;99.90
25138;DHT22;13112;50.986;4.354;2023-02-21T19:12:52;6.30;99.90
25138;DHT22;13112;50.986;4.354;2023-02-21T19:15:19;6.30;99.90
25138;DHT22;13112;50.986;4.354;2023-02-21T19:17:45;6.30;99.90
25138;DHT22;13112;50.986;4.354;2023-02-21T19:20:14;6.30;99.90
25138;DHT22;13112;50.986;4.354;2023-02-21T19:22:40;6.30;99.90
25138;DHT22;13112;50.986;4.354;2023-02-21T19:25:06;6.30;99.90
25138;DHT22;13112;50.986;4.354;2023-02-21T19:27:31;6.10;99.90
25138;DHT22;13112;50.986;4.354;2023-02-21T19:29:57;6.00;99.90
25138;DHT22;13112;50.986;4.354;2023-02-21T19:32:23;5.90;99.90
25138;DHT22;13112;50.986;4.354;2023-02-21T19:34:50;5.90;99.90
25138;DHT22;13112;50.986;4.354;2023-02-21T19:37:16;6.00;99.90
25138;DHT22;13112;50.986;4.354;2023-02-21T19:39:42;5.90;99.90